Time;durP1;ratioP1;P1;durP2;ratioP2;P2;SDS_P1;SDS_P2;PMS_P1;PMS_P2;Temp;Humidity;BMP_temperature;BMP_pressure;BME280_temperature;BME280_humidity;BME280_pressure;Samples;Min_cycle;Max_cycle;Signal;HPM_P1;HPM_P2
2023/01/04 00:01:32;;;;;;;;;;;;;;;2.99;100.00;100041.72;4280375;33;19940;-76
2023/01/04 00:03:59;;;;;;;;;;;;;;;2.76;100.00;100042.53;4309737;33;19949;-77
2023/01/04 00:06:25;;;;;;;;;;;;;;;2.98;100.00;100040.06;4313238;33;19963;-76
2023/01/04 00:08:52;;;;;;;;;;;;;;;2.97;100.00;100046.38;4294779;33;20382;-76
2023/01/04 00:11:20;;;;;;;;;;;;;;;2.87;100.00;100043.94;4294725;33;20064;-76
2023/01/04 00:13:47;;;;;;;;;;;;;;;3.06;100.00;100040.00;4286056;33;19975;-76
2023/01/04 00:16:15;;;;;;;;;;;;;;;3.09;100.00;100040.50;4280952;33;19955;-76
2023/01/04 00:18:41;;;;;;;;;;;;;;;3.01;100.00;100050.34;4281145;33;19961;-76
2023/01/04 00:21:10;;;;;;;;;;;;;;;3.17;100.00;100038.78;4281537;33;19963;-76
2023/01/04 00:23:37;;;;;;;;;;;;;;;3.28;100.00;100041.03;4269236;33;20414;-76
2023/01/04 00:26:14;;;;;;;;;;;;;;;2.88;100.00;100041.09;4271052;33;19941;-76
2023/01/04 00:28:41;;;;;;;;;;;;;;;3.18;100.00;100035.94;4278190;33;20813;-77
2023/01/04 00:31:08;;;;;;;;;;;;;;;3.27;100.00;100036.69;4282024;33;19959;-76
2023/01/04 00:33:34;;;;;;;;;;;;;;;3.24;100.00;100045.88;4269049;33;19953;-76
2023/01/04 00:36:01;;;;;;;;;;;;;;;3.11;100.00;100042.97;4280558;33;20060;-76
2023/01/04 00:38:34;;;;;;;;;;;;;;;3.20;100.00;100049.91;4281517;33;20049;-75
2023/01/04 00:41:01;;;;;;;;;;;;;;;3.09;100.00;100048.50;4265268;33;19942;-76
2023/01/04 00:43:27;;;;;;;;;;;;;;;3.19;100.00;100045.59;4267700;33;19953;-76
2023/01/04 00:45:54;;;;;;;;;;;;;;;3.23;100.00;100048.72;4266090;33;20760;-76
2023/01/04 00:48:20;;;;;;;;;;;;;;;3.38;100.00;100046.12;4266200;33;19956;-76
2023/01/04 00:50:47;;;;;;;;;;;;;;;3.39;100.00;100042.47;4265619;33;20305;-76
2023/01/04 00:53:14;;;;;;;;;;;;;;;3.18;100.00;100046.59;4265575;33;19945;-75
2023/01/04 00:55:41;;;;;;;;;;;;;;;3.40;100.00;100050.25;4250370;33;19946;-76
2023/01/04 00:58:07;;;;;;;;;;;;;;;3.33;100.00;100053.81;4250602;33;20069;-75
2023/01/04 03:06:14;;;;;;;;;;;;;;;2.46;100.00;99978.50;4935799;27;20007;-76
2023/01/04 03:06:31;;;;;;;;;;;;;;;2.30;100.00;99978.59;4314269;33;19957;-78
2023/01/04 03:09:07;;;;;;;;;;;;;;;2.25;100.00;99963.16;4312426;33;19953;-76
2023/01/04 03:14:44;;;;;;;;;;;;;;;2.24;100.00;99958.00;4267120;33;20268;-76
2023/01/04 03:17:12;;;;;;;;;;;;;;;2.23;100.00;99951.84;4254759;33;19986;-77
2023/01/04 03:19:53;;;;;;;;;;;;;;;1.93;100.00;99945.50;4238578;33;19970;-77
2023/01/04 03:36:19;;;;;;;;;;;;;;;1.65;100.00;99927.31;4239470;33;19964;-76
2023/01/04 03:50:59;;;;;;;;;;;;;;;1.66;100.00;99934.28;4291382;33;19952;-74
2023/01/04 03:53:26;;;;;;;;;;;;;;;1.71;100.00;99920.47;4312974;33;20298;-75
2023/01/04 03:55:53;;;;;;;;;;;;;;;1.72;100.00;99928.28;4311911;33;19940;-77
2023/01/04 03:58:20;;;;;;;;;;;;;;;1.68;100.00;99919.03;4312107;33;20672;-76
2023/01/04 04:00:46;;;;;;;;;;;;;;;1.69;100.00;99919.84;4312985;33;19966;-77
2023/01/04 04:03:13;;;;;;;;;;;;;;;1.58;100.00;99918.34;4312504;33;19963;-77
2023/01/04 04:08:28;;;;;;;;;;;;;;;1.54;100.00;99914.41;4312328;33;20282;-75
2023/01/04 04:10:56;;;;;;;;;;;;;;;1.47;100.00;99924.03;4313543;33;19959;-76
2023/01/04 04:13:22;;;;;;;;;;;;;;;1.62;100.00;99917.03;4313199;33;19952;-76
2023/01/04 04:15:51;;;;;;;;;;;;;;;1.56;100.00;99909.75;4312766;33;20060;-76
2023/01/04 04:18:17;;;;;;;;;;;;;;;1.53;100.00;99907.44;4281019;33;20349;-76
2023/01/04 04:20:43;;;;;;;;;;;;;;;1.60;100.00;99905.78;4282654;33;19941;-77
2023/01/04 04:23:10;;;;;;;;;;;;;;;1.43;100.00;99892.50;4280317;33;19945;-75
2023/01/04 04:25:36;;;;;;;;;;;;;;;1.30;100.00;99897.53;4279368;33;19983;-76
2023/01/04 04:28:02;;;;;;;;;;;;;;;1.60;100.00;99897.81;4287931;33;19967;-77
2023/01/04 04:30:28;;;;;;;;;;;;;;;1.65;100.00;99899.94;4285917;33;20382;-77
2023/01/04 04:32:55;;;;;;;;;;;;;;;1.45;100.00;99885.22;4280657;33;20347;-77
2023/01/04 04:35:21;;;;;;;;;;;;;;;1.37;100.00;99879.94;4281446;33;20052;-76
2023/01/04 04:37:47;;;;;;;;;;;;;;;1.48;100.00;99877.91;4281937;33;20350;-77
2023/01/04 04:42:58;;;;;;;;;;;;;;;1.46;100.00;99875.44;4287069;33;20686;-77
2023/01/04 04:45:24;;;;;;;;;;;;;;;1.50;100.00;99875.91;4266952;33;19991;-76
2023/01/04 04:47:50;;;;;;;;;;;;;;;1.59;100.00;99874.91;4267076;33;20007;-76
2023/01/04 04:50:17;;;;;;;;;;;;;;;1.52;100.00;99876.59;4291719;33;20364;-77
2023/01/04 04:52:43;;;;;;;;;;;;;;;1.25;100.00;99874.16;4296107;33;20255;-77
2023/01/04 04:55:09;;;;;;;;;;;;;;;1.26;100.00;99880.28;4296185;33;19941;-76
2023/01/04 04:57:35;;;;;;;;;;;;;;;1.14;100.00;99876.31;4282020;33;20079;-75
2023/01/04 05:00:02;;;;;;;;;;;;;;;1.51;100.00;99873.09;4294885;33;19948;-75
2023/01/04 05:02:28;;;;;;;;;;;;;;;1.65;100.00;99874.22;4295241;33;19990;-76
2023/01/04 05:04:55;;;;;;;;;;;;;;;1.40;100.00;99868.97;4294333;33;20002;-76
2023/01/04 05:07:21;;;;;;;;;;;;;;;1.47;100.00;99866.47;4296045;33;19953;-76
2023/01/04 05:09:47;;;;;;;;;;;;;;;1.57;100.00;99866.28;4282238;33;19953;-76
2023/01/04 05:14:58;;;;;;;;;;;;;;;1.02;100.00;99863.41;4264243;33;19960;-77
2023/01/04 05:17:25;;;;;;;;;;;;;;;1.02;100.00;99858.09;4280258;33;20046;-76
2023/01/04 05:19:51;;;;;;;;;;;;;;;1.06;100.00;99864.72;4280943;33;19941;-77
2023/01/04 05:22:17;;;;;;;;;;;;;;;1.39;100.00;99854.06;4281249;33;20309;-77
2023/01/04 05:24:43;;;;;;;;;;;;;;;1.42;100.00;99858.19;4281053;33;19950;-77
2023/01/04 05:27:10;;;;;;;;;;;;;;;1.45;100.00;99853.38;4281059;33;19949;-76
2023/01/04 05:32:20;;;;;;;;;;;;;;;1.06;100.00;99842.69;4266817;33;19961;-77
2023/01/04 05:34:46;;;;;;;;;;;;;;;1.27;100.00;99840.31;4266076;33;19977;-77
2023/01/04 05:37:13;;;;;;;;;;;;;;;1.31;100.00;99838.16;4275905;33;19997;-77
2023/01/04 05:39:39;;;;;;;;;;;;;;;1.26;100.00;99829.84;4268611;33;19945;-77
2023/01/04 05:44:50;;;;;;;;;;;;;;;1.37;100.00;99833.97;4295020;33;20222;-78
2023/01/04 05:47:17;;;;;;;;;;;;;;;1.35;100.00;99830.69;4295247;33;19961;-77
2023/01/04 05:49:43;;;;;;;;;;;;;;;1.56;100.00;99828.28;4293412;33;19951;-77
2023/01/04 05:52:09;;;;;;;;;;;;;;;1.40;100.00;99823.84;4282357;33;19952;-77
2023/01/04 05:54:35;;;;;;;;;;;;;;;1.24;100.00;99818.59;4287803;33;20311;-77
2023/01/04 05:57:02;;;;;;;;;;;;;;;1.43;100.00;99807.59;4295207;33;19960;-77
2023/01/04 05:59:28;;;;;;;;;;;;;;;0.95;100.00;99804.06;4292924;33;19937;-77
2023/01/04 06:01:54;;;;;;;;;;;;;;;1.33;100.00;99796.34;4280655;33;19953;-77
2023/01/04 06:04:20;;;;;;;;;;;;;;;1.00;100.00;99796.44;4280602;33;20019;-77
2023/01/04 06:06:47;;;;;;;;;;;;;;;0.86;100.00;99794.47;4280705;33;20144;-76
2023/01/04 06:09:13;;;;;;;;;;;;;;;0.70;100.00;99782.91;4279640;33;19949;-77
2023/01/04 06:11:39;;;;;;;;;;;;;;;0.36;100.00;99778.56;4276025;33;19987;-77
2023/01/04 06:14:05;;;;;;;;;;;;;;;0.51;100.00;99776.12;4277685;33;19985;-77
2023/01/04 06:16:31;;;;;;;;;;;;;;;0.67;100.00;99785.88;4280311;33;19945;-76
2023/01/04 06:18:58;;;;;;;;;;;;;;;0.58;100.00;99778.94;4264038;33;19960;-79
2023/01/04 06:21:24;;;;;;;;;;;;;;;0.80;100.00;99784.53;4266162;33;20016;-78
2023/01/04 06:23:57;;;;;;;;;;;;;;;0.76;100.00;99783.22;4224113;34;20246;-79
2023/01/04 06:26:26;;;;;;;;;;;;;;;0.70;100.00;99790.84;4222975;34;19941;-78
2023/01/04 06:28:52;;;;;;;;;;;;;;;1.20;100.00;99790.78;4221989;34;20073;-77
2023/01/04 06:31:25;;;;;;;;;;;;;;;0.97;100.00;99780.84;4220852;34;19969;-76
2023/01/04 06:33:52;;;;;;;;;;;;;;;0.94;100.00;99781.19;4248202;33;19978;-76
2023/01/04 06:36:18;;;;;;;;;;;;;;;1.20;100.00;99780.16;4244459;33;19955;-77
2023/01/04 06:38:44;;;;;;;;;;;;;;;0.96;100.00;99775.72;4235771;33;19946;-77
2023/01/04 06:41:10;;;;;;;;;;;;;;;1.17;100.00;99775.19;4237591;33;20000;-77
2023/01/04 06:43:36;;;;;;;;;;;;;;;1.42;100.00;99784.72;4237712;33;19982;-83
2023/01/04 06:46:03;;;;;;;;;;;;;;;1.60;100.00;99786.31;4238688;33;20057;-79
2023/01/04 06:48:29;;;;;;;;;;;;;;;1.62;100.00;99790.44;4242640;33;19972;-79
2023/01/04 06:50:55;;;;;;;;;;;;;;;1.38;100.00;99783.41;4235506;33;19970;-79
2023/01/04 06:53:21;;;;;;;;;;;;;;;1.46;100.00;99779.87;4237460;33;19954;-79
2023/01/04 06:55:48;;;;;;;;;;;;;;;1.51;100.00;99792.66;4251355;33;19957;-79
2023/01/04 06:58:14;;;;;;;;;;;;;;;1.36;100.00;99780.09;4272292;33;19965;-77
2023/01/04 07:00:40;;;;;;;;;;;;;;;1.61;100.00;99783.47;4272811;33;19960;-79
2023/01/04 07:03:06;;;;;;;;;;;;;;;1.77;100.00;99774.59;4261526;33;19993;-78
2023/01/04 07:05:33;;;;;;;;;;;;;;;1.43;100.00;99774.91;4233527;33;20085;-81
2023/01/04 07:08:00;;;;;;;;;;;;;;;1.37;100.00;99763.19;4232728;33;20116;-77
2023/01/04 07:10:27;;;;;;;;;;;;;;;1.25;100.00;99767.19;4214361;34;19988;-81
2023/01/04 07:12:53;;;;;;;;;;;;;;;1.12;100.00;99762.44;4210217;34;19951;-81
2023/01/04 07:15:19;;;;;;;;;;;;;;;1.33;100.00;99756.56;4209783;34;19959;-80
2023/01/04 07:17:46;;;;;;;;;;;;;;;1.24;100.00;99749.63;4206961;34;20241;-79
2023/01/04 07:20:12;;;;;;;;;;;;;;;1.15;100.00;99740.03;4195923;34;19963;-82
2023/01/04 07:22:38;;;;;;;;;;;;;;;1.26;100.00;99743.16;4243351;33;19960;-82
2023/01/04 07:25:05;;;;;;;;;;;;;;;1.07;100.00;99739.06;4250258;33;19950;-83
2023/01/04 07:27:31;;;;;;;;;;;;;;;1.27;100.00;99743.97;4248917;33;20356;-78
2023/01/04 07:30:05;;;;;;;;;;;;;;;1.69;100.00;99742.78;4256766;33;19972;-82
2023/01/04 07:32:34;;;;;;;;;;;;;;;1.47;100.00;99732.94;4219098;34;20006;-80
2023/01/04 07:35:02;;;;;;;;;;;;;;;1.49;100.00;99734.44;4196289;34;20285;-77
2023/01/04 07:37:28;;;;;;;;;;;;;;;1.88;100.00;99743.34;4209482;34;20459;-80
2023/01/04 07:39:55;;;;;;;;;;;;;;;1.93;100.00;99748.94;4209479;34;19955;-78
2023/01/04 07:42:21;;;;;;;;;;;;;;;1.91;100.00;99743.00;4221480;33;20090;-79
2023/01/04 07:44:47;;;;;;;;;;;;;;;2.26;100.00;99743.41;4208774;34;19973;-76
2023/01/04 07:47:14;;;;;;;;;;;;;;;2.13;100.00;99739.50;4207092;34;19972;-78
2023/01/04 07:49:40;;;;;;;;;;;;;;;1.84;100.00;99739.41;4194795;34;20119;-79
2023/01/04 07:52:06;;;;;;;;;;;;;;;2.22;100.00;99748.25;4198054;34;20335;-80
2023/01/04 07:54:33;;;;;;;;;;;;;;;2.44;100.00;99735.97;4197840;34;19954;-78
2023/01/04 07:56:59;;;;;;;;;;;;;;;2.42;100.00;99727.31;4197499;34;19940;-77
2023/01/04 07:59:31;;;;;;;;;;;;;;;2.52;100.00;99719.94;4196180;34;19986;-78
2023/01/04 08:01:57;;;;;;;;;;;;;;;2.36;100.00;99717.41;4197515;34;20323;-78
2023/01/04 08:04:24;;;;;;;;;;;;;;;2.38;100.00;99726.03;4220068;34;19943;-77
2023/01/04 08:06:50;;;;;;;;;;;;;;;2.65;100.00;99710.50;4207902;34;19970;-77
2023/01/04 08:09:17;;;;;;;;;;;;;;;2.51;100.00;99704.97;4208479;34;19954;-78
2023/01/04 08:11:44;;;;;;;;;;;;;;;2.58;100.00;99705.06;4211327;34;20756;-78
2023/01/04 08:14:10;;;;;;;;;;;;;;;2.60;100.00;99696.91;4211233;34;20007;-78
2023/01/04 08:16:37;;;;;;;;;;;;;;;2.52;100.00;99701.31;4222716;34;19994;-79
2023/01/04 08:19:10;;;;;;;;;;;;;;;2.57;100.00;99697.28;4224676;34;20334;-78
2023/01/04 08:21:37;;;;;;;;;;;;;;;2.82;100.00;99701.34;4236999;33;19966;-77
2023/01/04 08:24:04;;;;;;;;;;;;;;;2.72;100.00;99692.81;4241314;33;19964;-77
2023/01/04 08:26:30;;;;;;;;;;;;;;;2.92;100.00;99682.47;4238532;33;19942;-77
2023/01/04 08:28:57;;;;;;;;;;;;;;;2.72;100.00;99679.53;4239213;33;19954;-78
2023/01/04 08:31:25;;;;;;;;;;;;;;;2.97;100.00;99676.56;4262958;33;20066;-78
2023/01/04 08:33:53;;;;;;;;;;;;;;;2.86;100.00;99665.41;4276743;33;19959;-78
2023/01/04 08:36:21;;;;;;;;;;;;;;;3.00;100.00;99665.56;4280233;33;19978;-77
2023/01/04 08:38:48;;;;;;;;;;;;;;;2.97;100.00;99649.97;4292768;33;19955;-77
2023/01/04 08:41:14;;;;;;;;;;;;;;;2.96;100.00;99638.50;4266449;33;19996;-77
2023/01/04 08:43:41;;;;;;;;;;;;;;;3.33;100.00;99634.03;4261474;33;19988;-77
2023/01/04 08:46:08;;;;;;;;;;;;;;;3.47;100.00;99632.34;4243944;33;19952;-78
2023/01/04 08:48:34;;;;;;;;;;;;;;;3.30;100.00;99626.41;4239999;33;20200;-78
2023/01/04 08:51:02;;;;;;;;;;;;;;;3.54;100.00;99613.78;4238983;33;19992;-78
2023/01/04 08:53:29;;;;;;;;;;;;;;;3.63;100.00;99608.12;4224560;33;20326;-78
2023/01/04 08:55:57;;;;;;;;;;;;;;;3.80;100.00;99599.91;4225191;33;20339;-78
2023/01/04 08:58:23;;;;;;;;;;;;;;;3.59;100.00;99596.22;4240153;33;19941;-77
2023/01/04 09:00:50;;;;;;;;;;;;;;;4.04;100.00;99605.81;4251424;33;19957;-77
2023/01/04 09:03:16;;;;;;;;;;;;;;;3.90;100.00;99603.06;4252160;33;20277;-77
2023/01/04 09:05:43;;;;;;;;;;;;;;;4.02;100.00;99605.19;4253187;33;19984;-77
2023/01/04 09:08:10;;;;;;;;;;;;;;;4.04;100.00;99608.47;4252884;33;19976;-78
2023/01/04 09:10:37;;;;;;;;;;;;;;;4.50;100.00;99597.31;4252898;33;20084;-77
2023/01/04 09:13:10;;;;;;;;;;;;;;;4.39;100.00;99589.87;4238450;33;19960;-77
2023/01/04 09:15:36;;;;;;;;;;;;;;;4.49;100.00;99595.69;4233313;33;19952;-77
2023/01/04 09:18:03;;;;;;;;;;;;;;;4.70;100.00;99586.78;4248984;33;20246;-76
2023/01/04 09:20:29;;;;;;;;;;;;;;;4.82;100.00;99585.19;4238474;33;20297;-78
2023/01/04 09:22:57;;;;;;;;;;;;;;;4.89;100.00;99590.56;4236447;33;20365;-77
2023/01/04 09:25:23;;;;;;;;;;;;;;;4.76;100.00;99574.50;4261477;33;20304;-78
2023/01/04 09:27:49;;;;;;;;;;;;;;;4.89;100.00;99566.53;4266234;33;20470;-76
2023/01/04 09:30:16;;;;;;;;;;;;;;;4.89;100.00;99564.69;4267010;33;20095;-76
2023/01/04 09:32:42;;;;;;;;;;;;;;;5.19;100.00;99558.22;4265919;33;20028;-76
2023/01/04 09:35:08;;;;;;;;;;;;;;;5.33;100.00;99554.56;4266542;33;19963;-76
2023/01/04 09:37:35;;;;;;;;;;;;;;;5.29;100.00;99555.97;4264681;33;20245;-75
2023/01/04 09:40:01;;;;;;;;;;;;;;;5.50;100.00;99551.50;4266339;33;19953;-76
2023/01/04 09:42:27;;;;;;;;;;;;;;;5.45;100.00;99552.91;4264628;33;19953;-76
2023/01/04 09:45:00;;;;;;;;;;;;;;;5.33;100.00;99548.38;4265220;33;19941;-76
2023/01/04 09:47:29;;;;;;;;;;;;;;;5.61;100.00;99537.53;4265770;33;19946;-76
2023/01/04 09:50:02;;;;;;;;;;;;;;;5.45;100.00;99536.87;4264063;33;19942;-77
2023/01/04 09:52:41;;;;;;;;;;;;;;;5.65;100.00;99522.75;4278382;33;19950;-74
2023/01/04 09:55:08;;;;;;;;;;;;;;;5.96;100.00;99507.91;4322601;33;19958;-76
2023/01/04 09:57:39;;;;;;;;;;;;;;;6.07;100.00;99491.28;4321816;33;20266;-76
2023/01/04 10:00:18;;;;;;;;;;;;;;;6.07;100.00;99480.56;4317017;33;19955;-76
2023/01/04 10:02:46;;;;;;;;;;;;;;;5.80;100.00;99463.75;4305984;33;19953;-75
2023/01/04 10:05:24;;;;;;;;;;;;;;;5.93;100.00;99452.19;4307758;33;19945;-76
2023/01/04 10:07:51;;;;;;;;;;;;;;;5.82;100.00;99441.12;4306691;33;19944;-73
2023/01/04 10:10:21;;;;;;;;;;;;;;;6.00;100.00;99442.38;4309347;33;19950;-73
2023/01/04 10:13:05;;;;;;;;;;;;;;;6.03;100.00;99433.94;4263525;33;19992;-73
2023/01/04 10:15:46;;;;;;;;;;;;;;;5.81;100.00;99431.47;4264563;33;19950;-73
2023/01/04 10:18:31;;;;;;;;;;;;;;;6.17;100.00;99413.28;4265052;33;19953;-73
2023/01/04 10:21:10;;;;;;;;;;;;;;;6.17;100.00;99410.62;4265613;33;19950;-74
2023/01/04 10:23:43;;;;;;;;;;;;;;;5.83;100.00;99402.66;4265389;33;20072;-73
2023/01/04 10:26:11;;;;;;;;;;;;;;;5.77;100.00;99395.50;4265917;33;20685;-72
2023/01/04 10:28:49;;;;;;;;;;;;;;;5.78;100.00;99389.13;4270780;33;19948;-73
2023/01/04 10:31:25;;;;;;;;;;;;;;;6.06;100.00;99376.53;4449662;28;19984;-74
2023/01/04 10:34:14;;;;;;;;;;;;;;;6.24;100.00;99367.81;4266211;33;19953;-73
2023/01/04 10:36:42;;;;;;;;;;;;;;;5.85;100.00;99366.91;4279027;33;20106;-72
2023/01/04 10:39:14;;;;;;;;;;;;;;;5.79;100.00;99363.22;4280347;33;19996;-72
2023/01/04 10:41:43;;;;;;;;;;;;;;;6.04;100.00;99350.00;4281282;33;20684;-73
2023/01/04 10:44:19;;;;;;;;;;;;;;;5.96;100.00;99344.87;4270008;33;20474;-73
2023/01/04 10:46:56;;;;;;;;;;;;;;;6.01;100.00;99337.06;4277277;33;19933;-73
2023/01/04 10:49:28;;;;;;;;;;;;;;;5.97;100.00;99330.50;4277577;33;19971;-73
2023/01/04 10:52:08;;;;;;;;;;;;;;;6.06;100.00;99328.41;4278412;33;20282;-72
2023/01/04 10:55:01;;;;;;;;;;;;;;;6.09;100.00;99323.44;4279232;33;19961;-73
2023/01/04 10:57:32;;;;;;;;;;;;;;;6.40;100.00;99318.34;4264942;33;19975;-72
2023/01/04 11:00:04;;;;;;;;;;;;;;;6.58;100.00;99320.31;4279762;33;19957;-73
2023/01/04 11:02:43;;;;;;;;;;;;;;;6.41;100.00;99320.81;4281327;33;19957;-74
2023/01/04 11:05:20;;;;;;;;;;;;;;;6.06;100.00;99318.53;4279417;33;20212;-73
2023/01/04 11:07:57;;;;;;;;;;;;;;;6.16;100.00;99300.19;4277516;33;19961;-73
2023/01/04 11:10:33;;;;;;;;;;;;;;;6.58;100.00;99293.56;4276440;33;20088;-73
2023/01/04 11:12:59;;;;;;;;;;;;;;;6.40;100.00;99291.59;4262613;33;20089;-72
2023/01/04 11:15:25;;;;;;;;;;;;;;;6.61;100.00;99282.41;4278664;33;20312;-73
2023/01/04 11:17:51;;;;;;;;;;;;;;;6.29;100.00;99269.87;4280064;33;19964;-73
2023/01/04 11:20:18;;;;;;;;;;;;;;;6.44;100.00;99256.19;4279545;33;19949;-74
2023/01/04 11:22:54;;;;;;;;;;;;;;;6.47;100.00;99245.03;4278357;33;20063;-74
2023/01/04 11:25:21;;;;;;;;;;;;;;;6.24;100.00;99234.09;4280838;33;20500;-74
2023/01/04 11:27:51;;;;;;;;;;;;;;;6.17;100.00;99226.97;4282821;33;19953;-73
2023/01/04 11:30:20;;;;;;;;;;;;;;;6.24;100.00;99210.03;4282064;33;19959;-72
2023/01/04 11:32:54;;;;;;;;;;;;;;;6.11;100.00;99203.78;4281130;33;20298;-72
2023/01/04 11:35:54;;;;;;;;;;;;;;;6.17;100.00;99213.59;4280707;33;19942;-72
2023/01/04 11:38:26;;;;;;;;;;;;;;;6.17;100.00;99205.59;4239973;33;19949;-73
2023/01/04 11:40:54;;;;;;;;;;;;;;;6.37;100.00;99196.59;4239031;33;19952;-72
2023/01/04 11:43:21;;;;;;;;;;;;;;;6.30;100.00;99195.81;4252016;33;19966;-73
2023/01/04 11:46:10;;;;;;;;;;;;;;;6.28;100.00;99184.50;4250141;33;19934;-73
2023/01/04 11:48:54;;;;;;;;;;;;;;;6.34;100.00;99170.28;4234415;33;19946;-73
2023/01/04 11:51:27;;;;;;;;;;;;;;;6.36;100.00;99169.00;4238490;33;19995;-73
2023/01/04 11:54:00;;;;;;;;;;;;;;;6.52;100.00;99162.28;4245162;33;20336;-73
2023/01/04 11:56:28;;;;;;;;;;;;;;;6.32;100.00;99150.97;4253895;33;20026;-73
2023/01/04 11:59:02;;;;;;;;;;;;;;;6.48;100.00;99139.69;4244469;33;19947;-73
2023/01/04 12:01:28;;;;;;;;;;;;;;;6.52;100.00;99135.53;4375450;28;20019;-73
2023/01/04 12:03:55;;;;;;;;;;;;;;;6.46;100.00;99136.44;4253167;33;20336;-74
2023/01/04 12:06:28;;;;;;;;;;;;;;;6.60;100.00;99125.59;4241296;33;19991;-74
2023/01/04 12:08:55;;;;;;;;;;;;;;;6.38;100.00;99123.31;4251837;33;19938;-73
2023/01/04 12:11:29;;;;;;;;;;;;;;;6.16;100.00;99125.59;4253644;33;20001;-74
2023/01/04 12:13:58;;;;;;;;;;;;;;;6.34;100.00;99111.44;4270859;33;20424;-73
2023/01/04 12:16:43;;;;;;;;;;;;;;;6.37;100.00;99105.66;4296674;33;19971;-74
2023/01/04 12:19:14;;;;;;;;;;;;;;;6.38;100.00;99099.25;4296192;33;20246;-73
2023/01/04 12:21:42;;;;;;;;;;;;;;;6.29;100.00;99092.56;4267894;33;19954;-73
2023/01/04 12:24:16;;;;;;;;;;;;;;;6.10;100.00;99087.16;4267674;33;19942;-73
2023/01/04 12:26:44;;;;;;;;;;;;;;;6.29;100.00;99081.88;4266658;33;19949;-73
2023/01/04 12:29:21;;;;;;;;;;;;;;;6.02;100.00;99082.09;4269526;33;20307;-73
2023/01/04 12:31:53;;;;;;;;;;;;;;;6.18;100.00;99070.84;4281496;33;19946;-73
2023/01/04 12:34:26;;;;;;;;;;;;;;;6.00;100.00;99050.25;4264612;33;19952;-73
2023/01/04 12:37:00;;;;;;;;;;;;;;;6.28;100.00;99032.09;4267232;33;20100;-73
2023/01/04 12:39:34;;;;;;;;;;;;;;;6.18;100.00;99021.91;4267566;33;19967;-73
2023/01/04 12:42:00;;;;;;;;;;;;;;;6.09;100.00;99024.03;4267351;33;20271;-74
2023/01/04 12:44:35;;;;;;;;;;;;;;;6.08;100.00;99018.91;4265336;33;20322;-73
2023/01/04 12:49:50;;;;;;;;;;;;;;;6.07;100.00;99023.44;4266180;33;19950;-74
2023/01/04 12:52:17;;;;;;;;;;;;;;;6.29;100.00;99025.72;4266148;33;20932;-74
2023/01/04 12:54:47;;;;;;;;;;;;;;;6.16;100.00;99007.94;4266272;33;19942;-75
2023/01/04 12:57:16;;;;;;;;;;;;;;;6.10;100.00;98998.94;4267582;33;19949;-74
2023/01/04 12:59:56;;;;;;;;;;;;;;;6.33;100.00;98984.09;4280594;33;19963;-74
2023/01/04 13:02:24;;;;;;;;;;;;;;;6.25;100.00;98984.41;4281112;33;20014;-74
2023/01/04 13:04:52;;;;;;;;;;;;;;;6.32;100.00;98974.47;4282035;33;20377;-74
2023/01/04 13:07:21;;;;;;;;;;;;;;;6.25;100.00;98979.06;4266583;33;19945;-74
2023/01/04 13:09:51;;;;;;;;;;;;;;;6.26;100.00;98978.03;4253018;33;19938;-74
2023/01/04 13:12:18;;;;;;;;;;;;;;;6.21;100.00;98961.81;4228896;33;19943;-74
2023/01/04 13:14:49;;;;;;;;;;;;;;;6.28;100.00;98967.91;4224840;33;19950;-74
2023/01/04 13:17:18;;;;;;;;;;;;;;;6.54;100.00;98948.03;4226091;33;20040;-74
2023/01/04 13:19:44;;;;;;;;;;;;;;;6.28;100.00;98920.59;4234026;33;19947;-75
2023/01/04 13:22:18;;;;;;;;;;;;;;;6.17;100.00;98935.53;4236276;33;20033;-74
2023/01/04 13:24:46;;;;;;;;;;;;;;;6.53;100.00;98935.72;4236152;33;20386;-74
2023/01/04 13:27:20;;;;;;;;;;;;;;;6.14;100.00;98927.13;4236948;33;20010;-74
2023/01/04 13:29:47;;;;;;;;;;;;;;;6.35;100.00;98909.81;4237564;33;20327;-74
2023/01/04 13:32:19;;;;;;;;;;;;;;;6.00;100.00;98905.91;4237946;33;19958;-75
2023/01/04 13:34:52;;;;;;;;;;;;;;;6.12;100.00;98905.97;4240280;33;20276;-75
2023/01/04 13:37:22;;;;;;;;;;;;;;;6.40;100.00;98891.25;4237548;33;20354;-73
2023/01/04 13:39:50;;;;;;;;;;;;;;;6.44;100.00;98876.38;4287630;33;20372;-72
2023/01/04 13:42:27;;;;;;;;;;;;;;;6.14;100.00;98887.87;4295469;33;20513;-73
2023/01/04 13:44:53;;;;;;;;;;;;;;;6.18;100.00;98877.53;4282927;33;19955;-73
2023/01/04 13:47:19;;;;;;;;;;;;;;;6.08;100.00;98872.72;4281790;33;19952;-73
2023/01/04 13:49:45;;;;;;;;;;;;;;;6.06;100.00;98858.75;4292318;33;20365;-73
2023/01/04 13:52:22;;;;;;;;;;;;;;;6.48;100.00;98856.16;4280691;33;19958;-77
2023/01/04 13:54:48;;;;;;;;;;;;;;;6.31;100.00;98852.47;4283394;33;19953;-77
2023/01/04 13:57:19;;;;;;;;;;;;;;;6.24;100.00;98846.41;4282221;33;20301;-76
2023/01/04 13:59:48;;;;;;;;;;;;;;;6.23;100.00;98858.16;4278374;33;19951;-75
2023/01/04 14:02:16;;;;;;;;;;;;;;;6.02;100.00;98851.44;4279947;33;19983;-76
2023/01/04 14:04:43;;;;;;;;;;;;;;;6.18;100.00;98834.75;4284651;33;19946;-75
2023/01/04 14:07:10;;;;;;;;;;;;;;;6.10;100.00;98832.41;4281014;33;19946;-75
2023/01/04 14:09:43;;;;;;;;;;;;;;;6.47;100.00;98833.13;4277584;33;20002;-75
2023/01/04 14:12:14;;;;;;;;;;;;;;;6.29;100.00;98841.22;4252914;33;19991;-75
2023/01/04 14:14:49;;;;;;;;;;;;;;;6.30;100.00;98830.28;4242433;33;19943;-75
2023/01/04 14:17:16;;;;;;;;;;;;;;;6.49;100.00;98825.69;4237495;33;19993;-75
2023/01/04 14:19:47;;;;;;;;;;;;;;;6.54;100.00;98823.16;4277287;33;19996;-75
2023/01/04 14:22:20;;;;;;;;;;;;;;;6.37;100.00;98817.63;4281306;33;19949;-75
2023/01/04 14:24:47;;;;;;;;;;;;;;;6.32;100.00;98835.41;4291544;33;20010;-76
2023/01/04 14:27:28;;;;;;;;;;;;;;;6.49;100.00;98816.84;4276070;33;19972;-75
2023/01/04 14:29:54;;;;;;;;;;;;;;;6.24;100.00;98822.31;4278637;33;19982;-74
2023/01/04 14:32:21;;;;;;;;;;;;;;;5.91;100.00;98828.91;4279430;33;19960;-75
2023/01/04 14:34:47;;;;;;;;;;;;;;;5.83;100.00;98809.44;4276198;33;20463;-75
2023/01/04 14:37:14;;;;;;;;;;;;;;;5.79;100.00;98800.25;4266932;33;20149;-77
2023/01/04 14:39:40;;;;;;;;;;;;;;;5.69;100.00;98791.13;4277392;33;20385;-76
2023/01/04 14:42:24;;;;;;;;;;;;;;;5.54;100.00;98796.87;4260228;33;20013;-75
2023/01/04 14:44:50;;;;;;;;;;;;;;;5.34;100.00;98797.88;4277069;33;20416;-75
2023/01/04 14:47:17;;;;;;;;;;;;;;;5.48;100.00;98755.03;4248207;33;19952;-76
2023/01/04 14:49:43;;;;;;;;;;;;;;;5.64;100.00;98765.09;4246503;33;19946;-76
2023/01/04 14:52:11;;;;;;;;;;;;;;;5.35;100.00;98767.47;4232100;33;19958;-75
2023/01/04 14:54:38;;;;;;;;;;;;;;;5.35;100.00;98764.81;4217581;34;19958;-73
2023/01/04 14:57:05;;;;;;;;;;;;;;;5.41;100.00;98771.94;4218101;34;19958;-74
2023/01/04 14:59:31;;;;;;;;;;;;;;;5.33;100.00;98748.19;4253170;33;19952;-73
2023/01/04 15:01:57;;;;;;;;;;;;;;;5.39;100.00;98767.84;4253810;33;19950;-74
2023/01/04 15:04:24;;;;;;;;;;;;;;;5.23;100.00;98750.56;4252254;33;19967;-73
2023/01/04 15:06:55;;;;;;;;;;;;;;;5.18;100.00;98745.88;4253957;33;19950;-74
2023/01/04 15:09:23;;;;;;;;;;;;;;;5.03;100.00;98743.56;4254964;33;19972;-74
2023/01/04 15:11:49;;;;;;;;;;;;;;;5.10;100.00;98759.50;4254005;33;19979;-73
2023/01/04 15:14:16;;;;;;;;;;;;;;;5.03;100.00;98727.56;4267893;33;19954;-73
2023/01/04 15:16:42;;;;;;;;;;;;;;;4.90;100.00;98733.03;4266885;33;20334;-73
2023/01/04 15:19:08;;;;;;;;;;;;;;;5.20;100.00;98726.97;4285196;33;20005;-74
2023/01/04 15:21:35;;;;;;;;;;;;;;;5.11;100.00;98723.00;4289264;33;19972;-74
2023/01/04 15:24:01;;;;;;;;;;;;;;;5.27;100.00;98715.19;4293717;33;19944;-74
2023/01/04 15:26:28;;;;;;;;;;;;;;;4.85;100.00;98708.84;4298038;33;19948;-74
2023/01/04 15:28:55;;;;;;;;;;;;;;;5.13;100.00;98707.56;4296345;33;20072;-73
2023/01/04 15:31:21;;;;;;;;;;;;;;;5.03;100.00;98695.53;4302298;33;19966;-74
2023/01/04 15:33:47;;;;;;;;;;;;;;;5.19;100.00;98693.31;4325839;33;19940;-74
2023/01/04 15:36:15;;;;;;;;;;;;;;;4.84;100.00;98707.22;4326621;33;19940;-74
2023/01/04 15:38:42;;;;;;;;;;;;;;;4.94;100.00;98686.19;4325893;33;19945;-75
2023/01/04 15:44:02;;;;;;;;;;;;;;;4.95;100.00;98677.16;4324361;33;19940;-75
2023/01/04 15:46:29;;;;;;;;;;;;;;;5.18;100.00;98670.34;4326589;33;19956;-74